Argo, Illinois
Current Conditions -  °F | °C
As of 8:53 PM on Wednesday 26 Nov 2014 (Local Time) from KMDW Reporting Station
Overcast Overcast  
Wind Chill: 24°   Ceiling: 2600
Heat Index: 30°   Visibility: 10mi
Dew Point: 23°   Wind: 6mph
Humidity: 75%   Direction: 300°WNW
Pressure: 30.16"   Gusts: NA
Location:  41.7806°N, 87.8151°W
Report Text: KMDW 270253Z 30005KT 10SM OVC026 M01/M05 A3016 RMK AO2 SNE09 SLP226 P0000 60000 T10111050 53012
Loading
Personal Weather Stations






























Interactive Weather Map New forecast layout! Learn more

10-Day Weather Forecast

Advertisements
Track Severe Weather on mobile